Barton Upon Irwell, United Kingdom
Current Conditions -  °F | °C
As of 1:50 PM on Monday 20 Oct 2014 (Local Time) from EGCC Reporting Station
Scattered Clouds Scattered Clouds  
Wind Chill: 14°   Ceiling: Unl
Heat Index: 14°   Visibility: 6mi
Dew Point: 11°   Wind: 15mph
Humidity: 82%   Direction: 230°SW
Pressure: 29.88"   Gusts: NA
Location:  53.48°N, 2.34°W
Report Text: EGCC 201250Z 23013KT 9999 FEW017 SCT023 14/11 Q1012
Loading
Personal Weather Stations






























Interactive Weather Map
Tropical Storm Tracking
New forecast layout! Learn more

10-Day Weather Forecast

Advertisements
Track Severe Weather on mobile